createdAt,value
2019-01-29T00:00:27.216Z,149.80
2019-01-29T00:00:58.447Z,155.72
2019-01-29T00:01:29.664Z,146.30
2019-01-29T00:02:00.902Z,139.10
2019-01-29T00:02:32.129Z,148.15
2019-01-29T00:03:03.430Z,162.37
2019-01-29T00:03:34.622Z,137.22
2019-01-29T00:04:05.867Z,127.97
2019-01-29T00:04:37.195Z,138.68
2019-01-29T00:05:08.404Z,150.05
2019-01-29T00:05:39.681Z,149.30
2019-01-29T00:06:10.934Z,146.40
2019-01-29T00:06:42.243Z,153.87
2019-01-29T00:07:13.527Z,144.80
2019-01-29T00:07:44.749Z,134.95
2019-01-29T00:08:16.048Z,143.52
2019-01-29T00:08:47.289Z,141.92
2019-01-29T00:09:18.567Z,146.15
2019-01-29T00:09:49.838Z,131.35
2019-01-29T00:10:21.057Z,141.77
2019-01-29T00:10:52.442Z,139.00
2019-01-29T00:11:23.655Z,149.42
2019-01-29T00:11:54.909Z,150.70
2019-01-29T00:12:26.176Z,138.85
2019-01-29T00:12:57.407Z,130.12
2019-01-29T00:13:28.702Z,119.22
2019-01-29T00:13:59.942Z,122.33
2019-01-29T00:14:31.172Z,124.25
2019-01-29T00:15:02.443Z,130.07
2019-01-29T00:15:33.704Z,137.95
2019-01-29T00:16:05.034Z,137.88
2019-01-29T00:16:36.296Z,146.00
2019-01-29T00:17:07.542Z,142.07
2019-01-29T00:17:38.757Z,143.00
2019-01-29T00:18:10.012Z,168.13
2019-01-29T00:18:41.280Z,156.93
2019-01-29T00:19:12.564Z,164.00
2019-01-29T00:19:43.861Z,171.37
2019-01-29T00:20:15.147Z,175.18
2019-01-29T00:20:46.417Z,135.70
2019-01-29T00:21:17.752Z,128.40
2019-01-29T00:21:48.989Z,146.07
2019-01-29T00:22:20.246Z,144.72
2019-01-29T00:22:51.497Z,183.35
2019-01-29T00:23:22.719Z,135.70
2019-01-29T00:23:53.976Z,130.87
2019-01-29T00:24:25.219Z,131.55
2019-01-29T00:24:56.483Z,124.78
2019-01-29T00:25:27.708Z,128.62
2019-01-29T00:25:58.947Z,136.92
2019-01-29T00:26:30.228Z,127.17
2019-01-29T00:27:01.542Z,120.47
2019-01-29T00:27:32.760Z,127.40
2019-01-29T00:28:03.994Z,128.30
2019-01-29T00:28:35.251Z,133.00
2019-01-29T00:29:06.536Z,141.15
2019-01-29T00:29:37.771Z,141.18
2019-01-29T00:30:08.999Z,136.68
2019-01-29T00:30:40.270Z,144.82
2019-01-29T00:31:11.536Z,129.20
2019-01-29T00:31:42.779Z,124.38
2019-01-29T00:32:14.014Z,138.60
2019-01-29T00:32:45.300Z,116.20
2019-01-29T00:33:16.580Z,120.55
2019-01-29T00:33:47.834Z,126.82
2019-01-29T00:34:19.090Z,116.77
2019-01-29T00:34:50.349Z,122.82
2019-01-29T00:35:21.564Z,125.35
2019-01-29T00:35:52.818Z,119.08
2019-01-29T00:36:24.087Z,117.37
2019-01-29T00:36:55.428Z,129.32
2019-01-29T00:37:26.651Z,125.78
2019-01-29T00:37:57.874Z,125.12
2019-01-29T00:38:29.091Z,118.33
2019-01-29T00:39:00.311Z,123.60
2019-01-29T00:39:31.600Z,124.45
2019-01-29T00:40:02.853Z,126.10
2019-01-29T00:40:34.064Z,130.90
2019-01-29T00:41:05.327Z,138.82
2019-01-29T00:41:36.622Z,143.55
2019-01-29T00:42:07.933Z,138.72
2019-01-29T00:42:39.191Z,137.05
2019-01-29T00:43:10.442Z,144.43
2019-01-29T00:43:41.688Z,136.62
2019-01-29T00:44:12.930Z,139.18
2019-01-29T00:44:44.169Z,141.32
2019-01-29T00:45:15.398Z,141.30
2019-01-29T00:45:46.694Z,145.65
2019-01-29T00:46:17.956Z,137.70
2019-01-29T00:46:49.228Z,128.27
2019-01-29T00:47:20.485Z,131.82
2019-01-29T00:47:51.735Z,135.93
2019-01-29T00:48:23.018Z,125.65
2019-01-29T00:48:54.326Z,122.67
2019-01-29T00:49:25.594Z,132.95
2019-01-29T00:49:56.825Z,126.58
2019-01-29T00:50:28.078Z,126.22
2019-01-29T00:50:59.326Z,132.50
2019-01-29T00:51:30.964Z,134.32
2019-01-29T00:52:04.492Z,129.35
2019-01-29T00:52:41.895Z,133.00
2019-01-29T00:53:08.729Z,137.43
2019-01-29T00:53:39.972Z,136.37
2019-01-29T00:54:11.253Z,131.57
2019-01-29T00:54:42.483Z,137.57
2019-01-29T00:55:16.222Z,145.55
2019-01-29T00:55:47.462Z,137.85
2019-01-29T00:56:18.721Z,134.70
2019-01-29T00:56:50.018Z,135.12
2019-01-29T00:57:21.266Z,134.93
2019-01-29T00:57:52.540Z,140.47
2019-01-29T00:58:23.807Z,149.45
2019-01-29T00:58:55.073Z,141.18
2019-01-29T00:59:26.319Z,147.40
2019-01-29T00:59:57.561Z,140.20
2019-01-29T01:00:28.809Z,135.65
2019-01-29T01:01:00.055Z,139.77
2019-01-29T01:01:31.332Z,140.47
2019-01-29T01:02:02.741Z,137.65
2019-01-29T01:02:33.994Z,142.72
2019-01-29T01:03:05.271Z,140.20
2019-01-29T01:03:36.512Z,143.28
2019-01-29T01:04:07.741Z,150.30
2019-01-29T01:04:39.008Z,142.37
2019-01-29T01:05:10.237Z,148.32
2019-01-29T01:05:41.536Z,143.28
2019-01-29T01:06:12.836Z,154.07
2019-01-29T01:06:44.098Z,145.02
2019-01-29T01:07:15.432Z,147.72
2019-01-29T01:07:46.746Z,142.20
2019-01-29T01:08:18.008Z,209.45
2019-01-29T01:08:49.315Z,200.35
2019-01-29T01:09:20.583Z,193.30
2019-01-29T01:09:57.073Z,135.93
2019-01-29T01:10:24.860Z,145.22
2019-01-29T01:10:56.131Z,160.80
2019-01-29T01:11:27.352Z,171.68
2019-01-29T01:11:58.614Z,171.13
2019-01-29T01:12:29.902Z,166.62
2019-01-29T01:13:01.191Z,174.70
2019-01-29T01:13:32.432Z,161.52
2019-01-29T01:14:03.691Z,149.38
2019-01-29T01:14:34.960Z,163.18
2019-01-29T01:15:06.212Z,153.93
2019-01-29T01:15:37.462Z,149.87
2019-01-29T01:16:08.739Z,140.28
2019-01-29T01:16:39.974Z,143.35
2019-01-29T01:17:11.244Z,177.17
2019-01-29T01:17:42.506Z,147.25
2019-01-29T01:18:13.795Z,175.95
2019-01-29T01:18:45.066Z,179.50
2019-01-29T01:19:16.321Z,162.65
2019-01-29T01:19:47.616Z,176.90
2019-01-29T01:20:18.875Z,153.93
2019-01-29T01:20:50.192Z,140.03
2019-01-29T01:21:21.444Z,144.07
2019-01-29T01:21:54.928Z,130.75
2019-01-29T01:22:26.164Z,143.62
2019-01-29T01:22:57.433Z,151.00
2019-01-29T01:23:28.799Z,161.52
2019-01-29T01:24:00.042Z,147.53
2019-01-29T01:24:31.320Z,135.52
2019-01-29T01:25:02.583Z,132.78
2019-01-29T01:25:33.840Z,140.32
2019-01-29T01:26:05.099Z,140.12
2019-01-29T01:26:36.488Z,143.05
2019-01-29T01:27:07.828Z,141.88
2019-01-29T01:27:39.060Z,134.72
2019-01-29T01:28:10.293Z,142.28
2019-01-29T01:28:41.613Z,140.60
2019-01-29T01:29:12.944Z,141.18
2019-01-29T01:29:44.235Z,140.47
2019-01-29T01:30:15.484Z,135.93
2019-01-29T01:30:46.734Z,138.50
2019-01-29T01:31:18.044Z,134.12
2019-01-29T01:31:49.286Z,136.97
2019-01-29T01:32:20.549Z,127.10
2019-01-29T01:32:51.835Z,145.65
2019-01-29T01:33:23.092Z,123.72
2019-01-29T01:33:54.344Z,133.60
2019-01-29T01:34:25.601Z,135.18
2019-01-29T01:34:56.909Z,134.22
2019-01-29T01:35:28.206Z,162.27
2019-01-29T01:35:59.519Z,155.00
2019-01-29T01:36:30.828Z,133.27
2019-01-29T01:37:02.098Z,142.98
2019-01-29T01:37:33.375Z,143.70
2019-01-29T01:38:04.654Z,140.43
2019-01-29T01:38:35.954Z,155.78
2019-01-29T01:39:07.273Z,114.35
2019-01-29T01:39:38.489Z,120.45
2019-01-29T01:40:09.743Z,130.05
2019-01-29T01:40:41.007Z,122.60
2019-01-29T01:41:12.225Z,132.05
2019-01-29T01:41:43.531Z,120.40
2019-01-29T01:42:14.771Z,123.75
2019-01-29T01:42:46.036Z,127.58
2019-01-29T01:43:17.256Z,142.70
2019-01-29T01:43:48.551Z,138.00
2019-01-29T01:44:19.820Z,140.50
2019-01-29T01:44:51.144Z,120.57
2019-01-29T01:45:22.356Z,125.22
2019-01-29T01:45:53.670Z,121.97
2019-01-29T01:46:24.959Z,134.87
2019-01-29T01:46:56.184Z,119.02
2019-01-29T01:47:27.438Z,130.12
2019-01-29T01:47:58.691Z,213.80
2019-01-29T01:48:30.548Z,188.50
2019-01-29T01:49:01.853Z,122.60
2019-01-29T01:49:33.469Z,128.53
2019-01-29T01:50:04.731Z,142.70
2019-01-29T01:50:35.956Z,126.75
2019-01-29T01:51:07.214Z,123.42
2019-01-29T01:51:38.454Z,123.13
2019-01-29T01:52:09.709Z,125.12
2019-01-29T01:52:40.981Z,124.12
2019-01-29T01:53:12.225Z,115.22
2019-01-29T01:53:43.563Z,118.90
2019-01-29T01:54:14.793Z,134.30
2019-01-29T01:54:46.059Z,116.42
2019-01-29T01:55:17.268Z,162.70
2019-01-29T01:55:48.527Z,193.02
2019-01-29T01:56:19.797Z,171.37
2019-01-29T01:56:51.083Z,148.95
2019-01-29T01:57:22.361Z,117.10
2019-01-29T01:57:53.636Z,135.57
2019-01-29T01:58:24.922Z,116.45
2019-01-29T01:58:56.239Z,115.97
2019-01-29T01:59:27.517Z,140.37
2019-01-29T01:59:58.752Z,134.50
2019-01-29T02:00:30.014Z,141.25
2019-01-29T02:01:01.285Z,136.95
2019-01-29T02:01:32.540Z,149.60
2019-01-29T02:02:03.854Z,125.65
2019-01-29T02:02:35.101Z,123.02
2019-01-29T02:03:06.387Z,147.87
2019-01-29T02:03:37.644Z,134.07
2019-01-29T02:04:08.920Z,122.98
2019-01-29T02:04:40.159Z,123.82
2019-01-29T02:05:11.418Z,115.75
2019-01-29T02:05:42.655Z,129.38
2019-01-29T02:06:13.908Z,120.97
2019-01-29T02:06:45.152Z,133.10
2019-01-29T02:07:16.385Z,124.35
2019-01-29T02:07:47.626Z,126.92
2019-01-29T02:08:18.893Z,125.10
2019-01-29T02:08:50.150Z,124.55
2019-01-29T02:09:21.481Z,118.22
2019-01-29T02:09:52.748Z,116.37
2019-01-29T02:10:24.046Z,118.95
2019-01-29T02:10:55.301Z,139.82
2019-01-29T02:11:26.541Z,155.00
2019-01-29T02:11:57.771Z,179.32
2019-01-29T02:12:29.018Z,171.47
2019-01-29T02:13:00.305Z,113.70
2019-01-29T02:13:32.822Z,107.90
2019-01-29T02:14:04.033Z,122.47
2019-01-29T02:14:35.289Z,132.80
2019-01-29T02:15:06.526Z,118.53
2019-01-29T02:15:37.787Z,120.82
2019-01-29T02:16:09.016Z,130.47
2019-01-29T02:16:40.283Z,121.13
2019-01-29T02:17:11.559Z,174.50
2019-01-29T02:17:43.096Z,166.95
2019-01-29T02:18:14.333Z,176.15
2019-01-29T02:18:45.649Z,156.45
2019-01-29T02:19:16.902Z,137.05
2019-01-29T02:19:48.158Z,167.40
2019-01-29T02:20:19.393Z,182.17
2019-01-29T02:20:50.677Z,168.37
2019-01-29T02:21:21.947Z,127.87
2019-01-29T02:21:53.207Z,127.40
2019-01-29T02:22:24.462Z,136.00
2019-01-29T02:22:55.735Z,108.00
2019-01-29T02:23:27.020Z,116.60
2019-01-29T02:23:58.290Z,115.95
2019-01-29T02:24:29.551Z,117.85
2019-01-29T02:25:00.782Z,116.55
2019-01-29T02:25:32.022Z,116.12
2019-01-29T02:26:03.293Z,116.17
2019-01-29T02:26:34.519Z,110.20
2019-01-29T02:27:05.778Z,102.42
2019-01-29T02:27:37.453Z,107.78
2019-01-29T02:28:08.711Z,112.60
2019-01-29T02:28:41.114Z,128.35
2019-01-29T02:29:12.320Z,106.27
2019-01-29T02:29:43.598Z,108.03
2019-01-29T02:30:14.878Z,103.15
2019-01-29T02:30:46.127Z,102.27
2019-01-29T02:31:17.360Z,98.65
2019-01-29T02:31:48.638Z,108.30
2019-01-29T02:32:19.948Z,90.62
2019-01-29T02:32:51.233Z,96.70
2019-01-29T02:33:25.099Z,99.15
2019-01-29T02:33:55.529Z,95.15
2019-01-29T02:34:26.758Z,101.80
2019-01-29T02:34:58.007Z,96.08
2019-01-29T02:35:29.269Z,118.22
2019-01-29T02:36:00.568Z,99.62
2019-01-29T02:36:31.826Z,93.03
2019-01-29T02:37:03.072Z,99.40
2019-01-29T02:37:34.295Z,101.75
2019-01-29T02:38:05.588Z,124.05
2019-01-29T02:38:36.823Z,135.12
2019-01-29T02:39:08.064Z,126.20
2019-01-29T02:39:39.319Z,96.72
2019-01-29T02:40:10.583Z,111.25
2019-01-29T02:40:41.859Z,96.63
2019-01-29T02:41:13.153Z,92.12
2019-01-29T02:41:44.408Z,84.35
2019-01-29T02:42:15.674Z,96.78
2019-01-29T02:42:46.937Z,96.70
2019-01-29T02:43:18.203Z,86.53
2019-01-29T02:43:49.444Z,87.60
2019-01-29T02:44:20.700Z,89.87
2019-01-29T02:44:51.976Z,94.90
2019-01-29T02:45:23.284Z,95.80
2019-01-29T02:45:54.536Z,98.22
2019-01-29T02:46:25.831Z,96.02
2019-01-29T02:46:57.076Z,94.05
2019-01-29T02:47:28.318Z,107.65
2019-01-29T02:47:59.565Z,100.87
2019-01-29T02:48:30.828Z,116.00
2019-01-29T02:49:02.124Z,105.35
2019-01-29T02:49:33.346Z,89.28
2019-01-29T02:50:04.613Z,97.42
2019-01-29T02:50:35.834Z,113.05
2019-01-29T02:51:07.063Z,108.30
2019-01-29T02:51:38.366Z,113.83
2019-01-29T02:52:09.608Z,111.95
2019-01-29T02:52:40.976Z,100.40
2019-01-29T02:53:18.085Z,101.60
2019-01-29T02:53:45.253Z,102.70
2019-01-29T02:54:16.545Z,97.92
2019-01-29T02:54:47.794Z,97.37
2019-01-29T02:55:19.032Z,104.17
2019-01-29T02:55:50.259Z,98.30
2019-01-29T02:56:21.503Z,96.22
2019-01-29T02:56:52.779Z,104.67
2019-01-29T02:57:24.025Z,100.95
2019-01-29T02:57:55.322Z,100.30
2019-01-29T02:58:26.585Z,100.72
2019-01-29T02:58:57.773Z,93.85
2019-01-29T02:59:29.341Z,92.17
2019-01-29T03:00:00.577Z,110.15
2019-01-29T03:00:31.809Z,104.72
2019-01-29T03:01:03.052Z,104.40
2019-01-29T03:01:34.284Z,107.87
2019-01-29T03:02:05.509Z,118.90
2019-01-29T03:02:36.791Z,121.47
2019-01-29T03:03:08.109Z,114.60
2019-01-29T03:03:39.322Z,95.55
2019-01-29T03:04:10.615Z,103.97
2019-01-29T03:04:41.874Z,98.03
2019-01-29T03:05:13.140Z,99.03
2019-01-29T03:05:44.424Z,102.38
2019-01-29T03:06:15.640Z,104.80
2019-01-29T03:06:46.936Z,101.12
2019-01-29T03:07:18.158Z,92.95
2019-01-29T03:07:49.472Z,100.58
2019-01-29T03:08:20.725Z,99.60
2019-01-29T03:08:52.003Z,99.00
2019-01-29T03:09:23.288Z,98.27
2019-01-29T03:09:54.544Z,94.42
2019-01-29T03:10:25.896Z,96.05
2019-01-29T03:10:57.152Z,89.42
2019-01-29T03:11:28.445Z,109.80
2019-01-29T03:11:59.675Z,94.95
2019-01-29T03:12:30.898Z,98.65
2019-01-29T03:13:02.128Z,86.42
2019-01-29T03:13:33.338Z,95.03
2019-01-29T03:14:04.572Z,91.10
2019-01-29T03:14:35.823Z,100.15
2019-01-29T03:15:07.049Z,102.07
2019-01-29T03:15:38.363Z,93.72
2019-01-29T03:16:09.598Z,99.87
2019-01-29T03:16:40.819Z,96.22
2019-01-29T03:17:12.055Z,98.07
2019-01-29T03:17:43.269Z,94.40
2019-01-29T03:18:14.494Z,95.00
2019-01-29T03:18:45.713Z,94.00
2019-01-29T03:19:16.951Z,126.00
2019-01-29T03:19:48.187Z,121.17
2019-01-29T03:20:20.500Z,100.92
2019-01-29T03:20:51.781Z,137.22
2019-01-29T03:21:23.053Z,108.87
2019-01-29T03:21:54.336Z,97.00
2019-01-29T03:22:25.568Z,112.08
2019-01-29T03:22:56.812Z,106.50
2019-01-29T03:23:28.089Z,126.00
2019-01-29T03:23:59.346Z,95.75
2019-01-29T03:24:30.572Z,90.97
2019-01-29T03:25:01.810Z,78.12
2019-01-29T03:25:33.042Z,113.70
2019-01-29T03:26:04.264Z,136.60
2019-01-29T03:26:35.547Z,148.72
2019-01-29T03:27:06.774Z,132.60
2019-01-29T03:27:38.049Z,105.22
2019-01-29T03:28:09.295Z,91.57
2019-01-29T03:28:40.526Z,89.62
2019-01-29T03:29:11.749Z,106.95
2019-01-29T03:29:43.030Z,143.50
2019-01-29T03:30:14.266Z,115.85
2019-01-29T03:30:45.484Z,108.22
2019-01-29T03:31:16.767Z,95.65
2019-01-29T03:31:48.013Z,115.72
2019-01-29T03:32:19.223Z,107.17
2019-01-29T03:32:51.653Z,117.60
2019-01-29T03:33:22.942Z,99.42
2019-01-29T03:33:54.222Z,93.85
2019-01-29T03:34:25.426Z,97.27
2019-01-29T03:34:56.712Z,105.12
2019-01-29T03:35:27.968Z,125.80
2019-01-29T03:35:59.253Z,141.77
2019-01-29T03:36:30.483Z,150.22
2019-01-29T03:37:01.703Z,113.88
2019-01-29T03:37:32.933Z,120.75
2019-01-29T03:38:04.208Z,127.78
2019-01-29T03:38:35.494Z,109.48
2019-01-29T03:39:06.714Z,96.00
2019-01-29T03:39:37.940Z,91.37
2019-01-29T03:40:09.153Z,84.97
2019-01-29T03:40:40.437Z,101.07
2019-01-29T03:41:11.721Z,98.75
2019-01-29T03:41:42.984Z,92.25
2019-01-29T03:42:14.208Z,83.22
2019-01-29T03:42:45.443Z,81.42
2019-01-29T03:43:16.727Z,94.25
2019-01-29T03:43:47.952Z,100.45
2019-01-29T03:44:19.222Z,96.42
2019-01-29T03:44:50.444Z,84.00
2019-01-29T03:45:21.681Z,103.80
2019-01-29T03:45:52.945Z,91.82
2019-01-29T03:46:24.200Z,82.05
2019-01-29T03:46:55.744Z,81.70
2019-01-29T03:47:26.981Z,103.40
2019-01-29T03:47:58.198Z,114.47
2019-01-29T03:48:29.486Z,108.87
2019-01-29T03:49:00.762Z,76.87
2019-01-29T03:49:32.033Z,76.70
2019-01-29T03:50:03.308Z,86.65
2019-01-29T03:50:34.525Z,89.75
2019-01-29T03:51:05.779Z,82.82
2019-01-29T03:51:37.003Z,86.72
2019-01-29T03:52:08.297Z,78.15
2019-01-29T03:52:39.510Z,72.60
2019-01-29T03:53:10.763Z,81.00
2019-01-29T03:53:41.985Z,79.87
2019-01-29T03:54:13.283Z,99.70
2019-01-29T03:54:44.494Z,85.87
2019-01-29T03:55:15.759Z,84.87
2019-01-29T03:55:46.995Z,97.42
2019-01-29T03:56:18.239Z,92.42
2019-01-29T03:56:49.489Z,79.47
2019-01-29T03:57:20.718Z,81.35
2019-01-29T03:57:51.971Z,80.85
2019-01-29T03:58:23.579Z,78.07
2019-01-29T03:58:54.867Z,81.85
2019-01-29T03:59:26.142Z,77.32
2019-01-29T03:59:57.427Z,76.35
2019-01-29T04:00:28.661Z,77.42
2019-01-29T04:00:59.897Z,80.25
2019-01-29T04:01:31.182Z,74.87
2019-01-29T04:02:02.404Z,78.05
2019-01-29T04:02:33.634Z,88.10
2019-01-29T04:03:04.924Z,83.45
2019-01-29T04:03:36.240Z,79.10
2019-01-29T04:04:07.545Z,73.45
2019-01-29T04:04:38.813Z,84.10
2019-01-29T04:05:10.051Z,97.37
2019-01-29T04:05:41.273Z,90.72
2019-01-29T04:06:12.553Z,97.50
2019-01-29T04:06:43.773Z,88.40
2019-01-29T04:07:14.991Z,83.87
2019-01-29T04:07:46.242Z,84.47
2019-01-29T04:08:17.471Z,95.20
2019-01-29T04:08:48.732Z,90.00
2019-01-29T04:09:19.975Z,94.42
2019-01-29T04:09:51.232Z,78.15
2019-01-29T04:10:22.491Z,82.75
2019-01-29T04:10:54.002Z,86.08
2019-01-29T04:11:25.310Z,82.97
2019-01-29T04:11:56.567Z,69.15
2019-01-29T04:12:27.793Z,88.37
2019-01-29T04:12:59.014Z,86.45
2019-01-29T04:13:30.279Z,88.95
2019-01-29T04:14:01.527Z,79.37
2019-01-29T04:14:32.857Z,90.00
2019-01-29T04:15:04.093Z,73.30
2019-01-29T04:15:35.347Z,83.22
2019-01-29T04:16:06.571Z,82.95
2019-01-29T04:16:37.862Z,88.17
2019-01-29T04:17:09.089Z,91.80
2019-01-29T04:17:40.315Z,83.47
2019-01-29T04:18:11.551Z,86.32
2019-01-29T04:18:42.782Z,109.05
2019-01-29T04:19:14.044Z,118.93
2019-01-29T04:19:45.317Z,124.07
2019-01-29T04:20:16.563Z,117.60
2019-01-29T04:20:48.427Z,98.37
2019-01-29T04:21:19.690Z,88.40
2019-01-29T04:21:50.920Z,93.35
2019-01-29T04:22:22.158Z,85.42
2019-01-29T04:22:53.421Z,85.42
2019-01-29T04:23:24.733Z,85.70
2019-01-29T04:23:56.003Z,85.17
2019-01-29T04:24:27.251Z,88.05
2019-01-29T04:24:58.544Z,97.57
2019-01-29T04:25:29.834Z,95.45
2019-01-29T04:26:01.059Z,94.60
2019-01-29T04:26:32.337Z,87.67
2019-01-29T04:27:04.039Z,83.40
2019-01-29T04:27:35.332Z,86.12
2019-01-29T04:28:06.611Z,87.60
2019-01-29T04:28:37.850Z,86.92
2019-01-29T04:29:09.088Z,88.27
2019-01-29T04:29:40.308Z,82.92
2019-01-29T04:30:11.590Z,81.75
2019-01-29T04:30:42.861Z,79.53
2019-01-29T04:31:14.162Z,91.00
2019-01-29T04:31:45.408Z,86.50
2019-01-29T04:32:16.698Z,78.22
2019-01-29T04:32:47.984Z,84.17
2019-01-29T04:33:19.241Z,84.58
2019-01-29T04:33:50.474Z,82.90
2019-01-29T04:34:21.712Z,84.58
2019-01-29T04:34:53.031Z,79.55
2019-01-29T04:35:24.295Z,81.47
2019-01-29T04:35:55.522Z,86.35
2019-01-29T04:36:26.788Z,112.45
2019-01-29T04:36:58.054Z,146.60
2019-01-29T04:37:29.402Z,102.60
2019-01-29T04:38:00.635Z,99.87
2019-01-29T04:38:31.921Z,88.22
2019-01-29T04:39:03.205Z,78.62
2019-01-29T04:39:34.545Z,83.65
2019-01-29T04:40:05.788Z,86.17
2019-01-29T04:40:37.041Z,83.52
2019-01-29T04:41:08.284Z,89.72
2019-01-29T04:41:39.511Z,84.58
2019-01-29T04:42:10.869Z,86.78
2019-01-29T04:42:42.103Z,91.02
2019-01-29T04:43:13.394Z,85.35
2019-01-29T04:43:44.647Z,90.72
2019-01-29T04:44:15.882Z,88.90
2019-01-29T04:44:47.170Z,90.67
2019-01-29T04:45:18.416Z,89.90
2019-01-29T04:45:49.757Z,87.82
2019-01-29T04:46:21.014Z,94.42
2019-01-29T04:46:52.258Z,91.32
2019-01-29T04:47:23.546Z,95.92
2019-01-29T04:47:54.852Z,83.92
2019-01-29T04:48:26.165Z,89.22
2019-01-29T04:48:57.409Z,87.17
2019-01-29T04:49:28.721Z,87.78
2019-01-29T04:50:00.020Z,84.87
2019-01-29T04:50:31.275Z,87.40
2019-01-29T04:51:02.556Z,88.30
2019-01-29T04:51:33.895Z,100.87
2019-01-29T04:52:05.110Z,83.65
2019-01-29T04:52:36.408Z,85.95
2019-01-29T04:53:07.674Z,83.87
2019-01-29T04:53:38.898Z,97.25
2019-01-29T04:54:10.140Z,96.87
2019-01-29T04:54:41.398Z,101.55
2019-01-29T04:55:12.661Z,104.72
2019-01-29T04:55:43.928Z,77.90
2019-01-29T04:56:15.142Z,87.90
2019-01-29T04:56:46.382Z,85.83
2019-01-29T04:57:17.705Z,86.90
2019-01-29T04:57:48.948Z,85.40
2019-01-29T04:58:20.190Z,102.25
2019-01-29T04:58:51.454Z,109.65
2019-01-29T04:59:22.711Z,103.75
2019-01-29T04:59:54.009Z,94.03
2019-01-29T05:00:25.303Z,90.95
2019-01-29T05:00:56.562Z,103.30
2019-01-29T05:01:27.789Z,87.27
2019-01-29T05:01:59.050Z,96.45
2019-01-29T05:02:30.345Z,91.55
2019-01-29T05:03:01.632Z,109.15
2019-01-29T05:03:32.928Z,93.67
2019-01-29T05:04:04.216Z,84.72
2019-01-29T05:04:35.475Z,98.82
2019-01-29T05:05:06.735Z,121.33
2019-01-29T05:05:37.970Z,132.93
2019-01-29T05:06:09.237Z,110.32
2019-01-29T05:06:40.521Z,92.40
2019-01-29T05:07:11.790Z,84.42
2019-01-29T05:07:43.092Z,90.42
2019-01-29T05:08:14.434Z,90.32
2019-01-29T05:08:45.726Z,94.47
2019-01-29T05:09:16.964Z,90.92
2019-01-29T05:09:48.203Z,86.90
2019-01-29T05:10:19.456Z,88.82
2019-01-29T05:10:50.735Z,97.57
2019-01-29T05:11:21.997Z,100.30
2019-01-29T05:11:53.252Z,95.10
2019-01-29T05:12:24.501Z,106.65
2019-01-29T05:12:55.778Z,95.70
2019-01-29T05:13:27.120Z,85.32
2019-01-29T05:13:58.407Z,90.85
2019-01-29T05:14:29.722Z,89.77
2019-01-29T05:15:01.060Z,99.70
2019-01-29T05:15:32.304Z,102.72
2019-01-29T05:16:03.565Z,102.17
2019-01-29T05:16:34.798Z,98.03
2019-01-29T05:17:06.082Z,100.97
2019-01-29T05:17:37.317Z,103.85
2019-01-29T05:18:08.610Z,92.35
2019-01-29T05:18:39.859Z,89.58
2019-01-29T05:19:11.121Z,90.80
2019-01-29T05:19:42.347Z,87.35
2019-01-29T05:20:13.588Z,85.97
2019-01-29T05:20:44.824Z,92.37
2019-01-29T05:21:16.367Z,90.17
2019-01-29T05:21:47.649Z,86.55
2019-01-29T05:22:18.872Z,91.42
2019-01-29T05:22:50.171Z,105.25
2019-01-29T05:23:21.499Z,96.92
2019-01-29T05:23:52.730Z,87.62
2019-01-29T05:24:24.928Z,119.25
2019-01-29T05:24:56.193Z,97.82
2019-01-29T05:25:27.453Z,95.22
2019-01-29T05:25:58.732Z,126.02
2019-01-29T05:26:30.031Z,97.70
2019-01-29T05:27:01.334Z,91.20
2019-01-29T05:27:32.574Z,82.85
2019-01-29T05:28:03.830Z,93.80
2019-01-29T05:28:35.091Z,87.45
2019-01-29T05:29:06.379Z,91.72
2019-01-29T05:29:37.620Z,97.17
2019-01-29T05:30:08.907Z,87.05
2019-01-29T05:30:40.230Z,88.22
2019-01-29T05:31:11.509Z,87.53
2019-01-29T05:31:42.774Z,91.63
2019-01-29T05:32:14.008Z,89.65
2019-01-29T05:32:45.244Z,82.82
2019-01-29T05:33:16.509Z,88.67
2019-01-29T05:33:47.766Z,88.55
2019-01-29T05:34:19.043Z,87.42
2019-01-29T05:34:50.378Z,91.17
2019-01-29T05:35:21.636Z,92.08
2019-01-29T05:35:52.889Z,89.45
2019-01-29T05:36:24.356Z,91.90
2019-01-29T05:36:55.742Z,89.85
2019-01-29T05:37:26.966Z,89.40
2019-01-29T05:37:58.215Z,90.95
2019-01-29T05:38:29.431Z,83.00
2019-01-29T05:39:00.657Z,111.08
2019-01-29T05:39:31.915Z,104.17
2019-01-29T05:40:03.157Z,100.42
2019-01-29T05:40:34.493Z,128.93
2019-01-29T05:41:05.723Z,120.35
2019-01-29T05:41:36.946Z,109.25
2019-01-29T05:42:08.192Z,115.20
2019-01-29T05:42:39.444Z,92.72
2019-01-29T05:43:10.663Z,100.50
2019-01-29T05:43:41.882Z,99.28
2019-01-29T05:44:13.110Z,98.55
2019-01-29T05:44:44.317Z,99.00
2019-01-29T05:45:15.535Z,94.10
2019-01-29T05:45:46.801Z,94.72
2019-01-29T05:46:18.007Z,100.85
2019-01-29T05:46:49.238Z,98.67
2019-01-29T05:47:20.456Z,108.37
2019-01-29T05:47:51.676Z,102.67
2019-01-29T05:48:22.928Z,110.12
2019-01-29T05:48:54.173Z,120.65
2019-01-29T05:49:25.401Z,106.70
2019-01-29T05:49:56.610Z,107.78
2019-01-29T05:50:27.901Z,99.72
2019-01-29T05:50:59.086Z,90.57
2019-01-29T05:51:30.298Z,93.05
2019-01-29T05:52:01.547Z,95.40
2019-01-29T05:52:32.830Z,96.67
2019-01-29T05:53:04.055Z,94.55
2019-01-29T05:53:35.275Z,94.28
2019-01-29T05:54:15.780Z,93.15
2019-01-29T05:54:39.461Z,93.85
2019-01-29T05:55:10.676Z,86.53
2019-01-29T05:55:41.886Z,89.40
2019-01-29T05:56:13.100Z,98.40
2019-01-29T05:56:44.334Z,98.40
2019-01-29T05:57:15.542Z,118.55
2019-01-29T05:57:46.746Z,140.88
2019-01-29T05:58:18.002Z,159.10
2019-01-29T05:58:49.231Z,137.40
2019-01-29T05:59:20.515Z,80.80
2019-01-29T05:59:51.757Z,97.60
2019-01-29T06:00:22.973Z,98.03
2019-01-29T06:00:54.183Z,92.80
2019-01-29T06:01:25.396Z,93.55
2019-01-29T06:01:56.604Z,91.17
2019-01-29T06:02:27.823Z,91.67
2019-01-29T06:02:59.037Z,96.17
2019-01-29T06:03:30.245Z,98.60
2019-01-29T06:04:01.477Z,109.67
2019-01-29T06:04:32.692Z,101.05
2019-01-29T06:05:03.972Z,115.35
2019-01-29T06:05:35.195Z,115.85
2019-01-29T06:06:06.416Z,111.52
2019-01-29T06:06:37.636Z,99.10
2019-01-29T06:07:08.852Z,99.67
2019-01-29T06:07:40.088Z,89.17
2019-01-29T06:08:11.381Z,95.75
2019-01-29T06:08:42.610Z,107.40
2019-01-29T06:09:13.822Z,93.35
2019-01-29T06:09:45.033Z,99.62
2019-01-29T06:10:16.298Z,105.55
2019-01-29T06:10:47.542Z,103.42
2019-01-29T06:11:18.786Z,97.35
2019-01-29T06:11:50.006Z,89.35
2019-01-29T06:12:21.249Z,90.03
2019-01-29T06:12:52.509Z,97.25
2019-01-29T06:13:23.782Z,108.50
2019-01-29T06:13:55.014Z,112.25
2019-01-29T06:14:26.231Z,112.50
2019-01-29T06:14:57.458Z,123.78
2019-01-29T06:15:28.771Z,106.83
2019-01-29T06:16:00.060Z,133.52
2019-01-29T06:16:31.286Z,121.53
2019-01-29T06:17:02.508Z,94.95
2019-01-29T06:17:33.733Z,98.42
2019-01-29T06:18:04.989Z,102.27
2019-01-29T06:18:36.215Z,113.65
2019-01-29T06:19:07.437Z,110.08
2019-01-29T06:19:38.681Z,101.82
2019-01-29T06:20:09.929Z,100.02
2019-01-29T06:20:41.170Z,107.37
2019-01-29T06:21:12.386Z,105.25
2019-01-29T06:21:43.639Z,106.87
2019-01-29T06:22:14.859Z,105.32
2019-01-29T06:22:46.099Z,101.45
2019-01-29T06:23:17.324Z,100.47
2019-01-29T06:23:48.572Z,93.50
2019-01-29T06:24:25.533Z,124.50
2019-01-29T06:24:53.177Z,100.10
2019-01-29T06:25:24.409Z,123.45
2019-01-29T06:25:55.623Z,133.65
2019-01-29T06:26:26.829Z,120.50
2019-01-29T06:26:58.045Z,107.00
2019-01-29T06:27:29.289Z,116.15
2019-01-29T06:28:00.519Z,118.93
2019-01-29T06:28:31.752Z,120.62
2019-01-29T06:29:02.976Z,123.28
2019-01-29T06:29:34.254Z,124.12
2019-01-29T06:30:05.472Z,105.40
2019-01-29T06:30:36.726Z,100.70
2019-01-29T06:31:07.940Z,100.00
2019-01-29T06:31:39.177Z,103.10
2019-01-29T06:32:10.391Z,115.70
2019-01-29T06:32:41.629Z,112.25
2019-01-29T06:33:12.838Z,105.27
2019-01-29T06:33:44.060Z,110.05
2019-01-29T06:34:15.291Z,101.87
2019-01-29T06:34:46.546Z,113.62
2019-01-29T06:35:17.785Z,104.05